SWA4139 KTUS-KDAL
Flight info
| Callsign | SWA4139 |
|---|---|
| Flight time | 1h 43m |
| Altitude | 37000 |
| Route | NOCHI EWM J4 INK BGTOE BACHR4 |
| Aircraft | B38M/M-SDE1FGHILORVWXY/HB1 |
Departure
| Time | 2026-05-07 01:49 |
|---|---|
| Airport | Tucson International Airport (KTUS) |
Arrival
| Time | 2026-05-07 03:33 |
|---|---|
| Airport | Dallas Love Field (KDAL) |
| Time | Latitude | Longitude | Altitude | Speed | Heading |
|---|---|---|---|---|---|
| 2026-05-07 01:33 | 32.11885 | -110.93767 | 2586 ft | 0 kts | 61° |
| 2026-05-07 01:38 | 32.11878 | -110.93782 | 2586 ft | 4 kts | 61° |
| 2026-05-07 01:38 | 32.11866 | -110.93806 | 2584 ft | 3 kts | 61° |
| 2026-05-07 01:38 | 32.11859 | -110.93834 | 2574 ft | 4 kts | 96° |
| 2026-05-07 01:39 | 32.11869 | -110.93861 | 2579 ft | 4 kts | 132° |
| 2026-05-07 01:39 | 32.11877 | -110.93871 | 2579 ft | 1 kts | 135° |
| 2026-05-07 01:39 | 32.11877 | -110.93872 | 2579 ft | 0 kts | 135° |
| 2026-05-07 01:41 | 32.11877 | -110.93871 | 2578 ft | 1 kts | 134° |
| 2026-05-07 01:42 | 32.11858 | -110.93847 | 2579 ft | 8 kts | 134° |
| 2026-05-07 01:42 | 32.11812 | -110.93796 | 2579 ft | 9 kts | 149° |
| 2026-05-07 01:42 | 32.11728 | -110.93810 | 2567 ft | 16 kts | 183° |
| 2026-05-07 01:42 | 32.11652 | -110.93741 | 2571 ft | 13 kts | 134° |
| 2026-05-07 01:43 | 32.11592 | -110.93673 | 2567 ft | 11 kts | 135° |
| 2026-05-07 01:43 | 32.11538 | -110.93609 | 2572 ft | 11 kts | 135° |
| 2026-05-07 01:43 | 32.11485 | -110.93547 | 2571 ft | 10 kts | 135° |
| 2026-05-07 01:43 | 32.11439 | -110.93490 | 2577 ft | 9 kts | 133° |
| 2026-05-07 01:44 | 32.11390 | -110.93433 | 2576 ft | 13 kts | 136° |
| 2026-05-07 01:44 | 32.11297 | -110.93326 | 2573 ft | 24 kts | 135° |
| 2026-05-07 01:44 | 32.11170 | -110.93175 | 2569 ft | 27 kts | 135° |
| 2026-05-07 01:44 | 32.11029 | -110.93012 | 2570 ft | 29 kts | 135° |
| 2026-05-07 01:45 | 32.10886 | -110.92843 | 2569 ft | 29 kts | 136° |
| 2026-05-07 01:45 | 32.10744 | -110.92676 | 2573 ft | 29 kts | 134° |
| 2026-05-07 01:45 | 32.10602 | -110.92510 | 2574 ft | 28 kts | 135° |
| 2026-05-07 01:45 | 32.10458 | -110.92340 | 2567 ft | 30 kts | 135° |
| 2026-05-07 01:46 | 32.10353 | -110.92219 | 2572 ft | 13 kts | 135° |
| 2026-05-07 01:46 | 32.10307 | -110.92188 | 2570 ft | 6 kts | 184° |
| 2026-05-07 01:46 | 32.10282 | -110.92201 | 2569 ft | 0 kts | 222° |
| 2026-05-07 01:48 | 32.10271 | -110.92213 | 2568 ft | 6 kts | 222° |
| 2026-05-07 01:48 | 32.10224 | -110.92280 | 2567 ft | 12 kts | 266° |
| 2026-05-07 01:48 | 32.10262 | -110.92359 | 2569 ft | 11 kts | 315° |
| 2026-05-07 01:48 | 32.10349 | -110.92461 | 2570 ft | 39 kts | 315° |
| 2026-05-07 01:49 | 32.10709 | -110.92883 | 2570 ft | 105 kts | 315° |
| 2026-05-07 01:49 | 32.11359 | -110.93647 | 2569 ft | 157 kts | 315° |
| 2026-05-07 01:49 | 32.12162 | -110.94583 | 2746 ft | 183 kts | 317° |
| 2026-05-07 01:49 | 32.13001 | -110.95571 | 3501 ft | 180 kts | 316° |
| 2026-05-07 01:50 | 32.13887 | -110.96641 | 4183 ft | 185 kts | 316° |
| 2026-05-07 01:50 | 32.14830 | -110.97754 | 4667 ft | 203 kts | 316° |
| 2026-05-07 01:50 | 32.15921 | -110.98968 | 4946 ft | 231 kts | 317° |
| 2026-05-07 01:50 | 32.17095 | -111.00315 | 5641 ft | 237 kts | 315° |
| 2026-05-07 01:51 | 32.18251 | -111.01716 | 6433 ft | 242 kts | 315° |
| 2026-05-07 01:51 | 32.19446 | -111.03122 | 7186 ft | 245 kts | 315° |
| 2026-05-07 01:51 | 32.20737 | -111.04476 | 7821 ft | 251 kts | 325° |
| 2026-05-07 01:51 | 32.22335 | -111.05349 | 8523 ft | 258 kts | 348° |
| 2026-05-07 01:52 | 32.22938 | -111.05439 | 8770 ft | 259 kts | 358° |
| 2026-05-07 01:52 | 32.23949 | -111.05306 | 9141 ft | 264 kts | 15° |
| 2026-05-07 01:52 | 32.25549 | -111.04196 | 9756 ft | 274 kts | 40° |
| 2026-05-07 01:52 | 32.26924 | -111.02619 | 10524 ft | 275 kts | 44° |
| 2026-05-07 01:53 | 32.28280 | -111.00998 | 11247 ft | 281 kts | 44° |
| 2026-05-07 01:53 | 32.29573 | -110.99233 | 11941 ft | 288 kts | 57° |
| 2026-05-07 01:53 | 32.30363 | -110.97033 | 12625 ft | 295 kts | 76° |
| 2026-05-07 01:53 | 32.30704 | -110.94625 | 13354 ft | 298 kts | 84° |
| 2026-05-07 01:54 | 32.30885 | -110.92218 | 14384 ft | 292 kts | 86° |
| 2026-05-07 01:54 | 32.31029 | -110.89794 | 15075 ft | 299 kts | 86° |
| 2026-05-07 01:54 | 32.31076 | -110.87297 | 15664 ft | 308 kts | 91° |
| 2026-05-07 01:54 | 32.30854 | -110.84745 | 16284 ft | 315 kts | 103° |
| 2026-05-07 01:55 | 32.30260 | -110.82231 | 16943 ft | 319 kts | 110° |
| 2026-05-07 01:55 | 32.29528 | -110.79747 | 17646 ft | 323 kts | 110° |
| 2026-05-07 01:55 | 32.28795 | -110.77257 | 18259 ft | 327 kts | 110° |
| 2026-05-07 01:55 | 32.28081 | -110.74700 | 18913 ft | 331 kts | 109° |
| 2026-05-07 01:56 | 32.27402 | -110.72027 | 19163 ft | 349 kts | 105° |
| 2026-05-07 01:56 | 32.27091 | -110.69108 | 19300 ft | 369 kts | 92° |
| 2026-05-07 01:56 | 32.26969 | -110.66008 | 19527 ft | 385 kts | 94° |
| 2026-05-07 01:56 | 32.26813 | -110.62804 | 19887 ft | 395 kts | 94° |
| 2026-05-07 01:57 | 32.26642 | -110.59556 | 20510 ft | 398 kts | 95° |
| 2026-05-07 01:57 | 32.26462 | -110.56271 | 21029 ft | 403 kts | 95° |
| 2026-05-07 01:57 | 32.26277 | -110.52954 | 21559 ft | 407 kts | 95° |
| 2026-05-07 01:57 | 32.26089 | -110.49601 | 22061 ft | 411 kts | 96° |
| 2026-05-07 01:58 | 32.25897 | -110.46207 | 22507 ft | 417 kts | 96° |
| 2026-05-07 01:58 | 32.25702 | -110.42776 | 23001 ft | 420 kts | 96° |
| 2026-05-07 01:58 | 32.25505 | -110.39316 | 23485 ft | 424 kts | 96° |
| 2026-05-07 01:58 | 32.25305 | -110.35824 | 23938 ft | 428 kts | 96° |
| 2026-05-07 01:59 | 32.25101 | -110.32299 | 24364 ft | 432 kts | 97° |
| 2026-05-07 01:59 | 32.24896 | -110.28738 | 24792 ft | 437 kts | 97° |
| 2026-05-07 01:59 | 32.24689 | -110.25190 | 25199 ft | 441 kts | 97° |
| 2026-05-07 01:59 | 32.24477 | -110.21561 | 25596 ft | 446 kts | 98° |
| 2026-05-07 02:00 | 32.24261 | -110.17884 | 25976 ft | 450 kts | 98° |
| 2026-05-07 02:00 | 32.24043 | -110.14185 | 26387 ft | 453 kts | 99° |
| 2026-05-07 02:00 | 32.23821 | -110.10459 | 26763 ft | 457 kts | 99° |
| 2026-05-07 02:00 | 32.23597 | -110.06702 | 27150 ft | 460 kts | 99° |
| 2026-05-07 02:01 | 32.23371 | -110.02914 | 27468 ft | 465 kts | 100° |
| 2026-05-07 02:01 | 32.23140 | -109.99093 | 27845 ft | 467 kts | 100° |
| 2026-05-07 02:01 | 32.22907 | -109.95248 | 28174 ft | 472 kts | 101° |
| 2026-05-07 02:01 | 32.22672 | -109.91370 | 28511 ft | 474 kts | 101° |
| 2026-05-07 02:02 | 32.22433 | -109.87468 | 28845 ft | 478 kts | 101° |
| 2026-05-07 02:02 | 32.22192 | -109.83547 | 29159 ft | 481 kts | 102° |
| 2026-05-07 02:02 | 32.21948 | -109.79593 | 29486 ft | 484 kts | 102° |
| 2026-05-07 02:02 | 32.21701 | -109.75616 | 29764 ft | 488 kts | 102° |
| 2026-05-07 02:03 | 32.21451 | -109.71610 | 30082 ft | 490 kts | 102° |
| 2026-05-07 02:03 | 32.21198 | -109.67588 | 30405 ft | 492 kts | 102° |
| 2026-05-07 02:03 | 32.20943 | -109.63545 | 30698 ft | 496 kts | 102° |
| 2026-05-07 02:03 | 32.20686 | -109.59466 | 31032 ft | 499 kts | 102° |
| 2026-05-07 02:04 | 32.20426 | -109.55381 | 31363 ft | 500 kts | 102° |
| 2026-05-07 02:04 | 32.20162 | -109.51275 | 31619 ft | 504 kts | 102° |
| 2026-05-07 02:04 | 32.19897 | -109.47137 | 31883 ft | 507 kts | 102° |
| 2026-05-07 02:04 | 32.19627 | -109.42977 | 32189 ft | 508 kts | 102° |
| 2026-05-07 02:05 | 32.19357 | -109.38814 | 32445 ft | 512 kts | 102° |
| 2026-05-07 02:05 | 32.19082 | -109.34610 | 32667 ft | 515 kts | 102° |
| 2026-05-07 02:05 | 32.18804 | -109.30387 | 32947 ft | 517 kts | 102° |
| 2026-05-07 02:05 | 32.18525 | -109.26151 | 33206 ft | 519 kts | 102° |
| 2026-05-07 02:06 | 32.18242 | -109.21892 | 33434 ft | 521 kts | 102° |
| 2026-05-07 02:06 | 32.18053 | -109.19061 | 33593 ft | 523 kts | 102° |
| 2026-05-07 02:06 | 32.17767 | -109.14774 | 33844 ft | 525 kts | 102° |
| 2026-05-07 02:06 | 32.17477 | -109.10469 | 34087 ft | 527 kts | 102° |
| 2026-05-07 02:07 | 32.17185 | -109.06149 | 34234 ft | 531 kts | 102° |
| 2026-05-07 02:07 | 32.16593 | -108.97453 | 34868 ft | 531 kts | 102° |
| 2026-05-07 02:07 | 32.16294 | -108.93105 | 35164 ft | 531 kts | 102° |
| 2026-05-07 02:08 | 32.15995 | -108.88760 | 35453 ft | 531 kts | 102° |
| 2026-05-07 02:08 | 32.15694 | -108.84417 | 35721 ft | 532 kts | 102° |
| 2026-05-07 02:08 | 32.15391 | -108.80066 | 35989 ft | 532 kts | 102° |
| 2026-05-07 02:08 | 32.15086 | -108.75710 | 36252 ft | 532 kts | 102° |
| 2026-05-07 02:09 | 32.14780 | -108.71361 | 36472 ft | 533 kts | 102° |
| 2026-05-07 02:09 | 32.14472 | -108.67005 | 36700 ft | 533 kts | 103° |
| 2026-05-07 02:09 | 32.14162 | -108.62647 | 36970 ft | 532 kts | 103° |
| 2026-05-07 02:09 | 32.13852 | -108.58298 | 37129 ft | 532 kts | 103° |
| 2026-05-07 02:10 | 32.13232 | -108.49684 | 37102 ft | 524 kts | 103° |
| 2026-05-07 02:10 | 32.12609 | -108.41100 | 37101 ft | 526 kts | 103° |
| 2026-05-07 02:11 | 32.11978 | -108.32502 | 37101 ft | 526 kts | 103° |
| 2026-05-07 02:11 | 32.11343 | -108.23912 | 37097 ft | 525 kts | 104° |
| 2026-05-07 02:12 | 32.10706 | -108.15380 | 37089 ft | 526 kts | 104° |
| 2026-05-07 02:12 | 32.10059 | -108.06796 | 37097 ft | 526 kts | 104° |
| 2026-05-07 02:13 | 32.09406 | -107.98205 | 37104 ft | 525 kts | 104° |
| 2026-05-07 02:13 | 32.08747 | -107.89619 | 37088 ft | 526 kts | 104° |
| 2026-05-07 02:14 | 32.08083 | -107.81039 | 37080 ft | 526 kts | 104° |
| 2026-05-07 02:14 | 32.07412 | -107.72453 | 37081 ft | 526 kts | 104° |
| 2026-05-07 02:15 | 32.06736 | -107.63870 | 37087 ft | 527 kts | 104° |
| 2026-05-07 02:15 | 32.06053 | -107.55270 | 37081 ft | 526 kts | 104° |
| 2026-05-07 02:16 | 32.05362 | -107.46664 | 37080 ft | 528 kts | 104° |
| 2026-05-07 02:16 | 32.04666 | -107.38057 | 37086 ft | 527 kts | 104° |
| 2026-05-07 02:17 | 32.03964 | -107.29442 | 37083 ft | 529 kts | 104° |
| 2026-05-07 02:17 | 32.03254 | -107.20803 | 37076 ft | 530 kts | 104° |
| 2026-05-07 02:18 | 32.02537 | -107.12156 | 37069 ft | 530 kts | 104° |
| 2026-05-07 02:18 | 32.01813 | -107.03505 | 37075 ft | 531 kts | 104° |
| 2026-05-07 02:19 | 32.01083 | -106.94839 | 37076 ft | 532 kts | 104° |
| 2026-05-07 02:19 | 32.00347 | -106.86172 | 37072 ft | 531 kts | 104° |
| 2026-05-07 02:20 | 31.99603 | -106.77500 | 37071 ft | 532 kts | 105° |
| 2026-05-07 02:20 | 31.98860 | -106.68893 | 37060 ft | 531 kts | 105° |
| 2026-05-07 02:21 | 31.98105 | -106.60234 | 37064 ft | 532 kts | 105° |
| 2026-05-07 02:21 | 31.97345 | -106.51562 | 37066 ft | 533 kts | 105° |
| 2026-05-07 02:22 | 31.96578 | -106.42898 | 37062 ft | 532 kts | 105° |
| 2026-05-07 02:22 | 31.95804 | -106.34220 | 37045 ft | 533 kts | 105° |
| 2026-05-07 02:23 | 31.95183 | -106.25504 | 37049 ft | 539 kts | 100° |
| 2026-05-07 02:23 | 31.95018 | -106.16660 | 37045 ft | 541 kts | 99° |
| 2026-05-07 02:24 | 31.94873 | -106.07809 | 37041 ft | 541 kts | 99° |
| 2026-05-07 02:24 | 31.94725 | -105.98955 | 37055 ft | 541 kts | 99° |
| 2026-05-07 02:25 | 31.94570 | -105.90113 | 37045 ft | 540 kts | 99° |
| 2026-05-07 02:25 | 31.94409 | -105.81263 | 37035 ft | 541 kts | 99° |
| 2026-05-07 02:26 | 31.94241 | -105.72409 | 37026 ft | 540 kts | 100° |
| 2026-05-07 02:26 | 31.94068 | -105.63563 | 37007 ft | 541 kts | 100° |
| 2026-05-07 02:27 | 31.93889 | -105.54716 | 37006 ft | 540 kts | 100° |
| 2026-05-07 02:27 | 31.93703 | -105.45866 | 37009 ft | 540 kts | 100° |
| 2026-05-07 02:28 | 31.93513 | -105.37037 | 37006 ft | 540 kts | 100° |
| 2026-05-07 02:28 | 31.93330 | -105.28255 | 37009 ft | 541 kts | 99° |
| 2026-05-07 02:29 | 31.93143 | -105.19388 | 37008 ft | 542 kts | 99° |
| 2026-05-07 02:29 | 31.92951 | -105.10519 | 37008 ft | 542 kts | 100° |
| 2026-05-07 02:30 | 31.92751 | -105.01655 | 37009 ft | 542 kts | 100° |
| 2026-05-07 02:30 | 31.92546 | -104.92788 | 37011 ft | 542 kts | 100° |
| 2026-05-07 02:31 | 31.92335 | -104.83925 | 36988 ft | 541 kts | 100° |
| 2026-05-07 02:31 | 31.92117 | -104.75067 | 37016 ft | 542 kts | 100° |
| 2026-05-07 02:32 | 31.91893 | -104.66190 | 37006 ft | 543 kts | 100° |
| 2026-05-07 02:32 | 31.91663 | -104.57290 | 37007 ft | 544 kts | 100° |
| 2026-05-07 02:33 | 31.91425 | -104.48401 | 37007 ft | 544 kts | 100° |
| 2026-05-07 02:33 | 31.91183 | -104.39500 | 37007 ft | 544 kts | 100° |
| 2026-05-07 02:34 | 31.90933 | -104.30589 | 37003 ft | 544 kts | 100° |
| 2026-05-07 02:34 | 31.90677 | -104.21689 | 37006 ft | 544 kts | 100° |
| 2026-05-07 02:35 | 31.90415 | -104.12778 | 37010 ft | 545 kts | 100° |
| 2026-05-07 02:35 | 31.90148 | -104.03914 | 37010 ft | 545 kts | 100° |
| 2026-05-07 02:36 | 31.89874 | -103.95005 | 37008 ft | 545 kts | 101° |
| 2026-05-07 02:36 | 31.89593 | -103.86096 | 37012 ft | 545 kts | 101° |
| 2026-05-07 02:37 | 31.89306 | -103.77191 | 37009 ft | 545 kts | 101° |
| 2026-05-07 02:37 | 31.89013 | -103.68292 | 37006 ft | 544 kts | 101° |
| 2026-05-07 02:38 | 31.88714 | -103.59402 | 37008 ft | 544 kts | 101° |
| 2026-05-07 02:38 | 31.88410 | -103.50520 | 37008 ft | 543 kts | 101° |
| 2026-05-07 02:39 | 31.88100 | -103.41652 | 36984 ft | 542 kts | 101° |
| 2026-05-07 02:39 | 31.87785 | -103.32783 | 36992 ft | 542 kts | 101° |
| 2026-05-07 02:40 | 31.87555 | -103.23968 | 36977 ft | 548 kts | 92° |
| 2026-05-07 02:40 | 31.88466 | -103.15005 | 36984 ft | 552 kts | 89° |
| 2026-05-07 02:41 | 31.89392 | -103.06043 | 36989 ft | 552 kts | 89° |
| 2026-05-07 02:41 | 31.90318 | -102.97083 | 36991 ft | 551 kts | 89° |
| 2026-05-07 02:42 | 31.91237 | -102.88122 | 36989 ft | 551 kts | 89° |
| 2026-05-07 02:42 | 31.92150 | -102.79164 | 36999 ft | 551 kts | 89° |
| 2026-05-07 02:43 | 31.93057 | -102.70209 | 36997 ft | 551 kts | 89° |
| 2026-05-07 02:43 | 31.93956 | -102.61256 | 37010 ft | 550 kts | 89° |
| 2026-05-07 02:44 | 31.94849 | -102.52311 | 37011 ft | 550 kts | 89° |
| 2026-05-07 02:44 | 31.95735 | -102.43367 | 37007 ft | 551 kts | 89° |
| 2026-05-07 02:45 | 31.96615 | -102.34414 | 37008 ft | 550 kts | 89° |
| 2026-05-07 02:45 | 31.97489 | -102.25460 | 37008 ft | 550 kts | 89° |
| 2026-05-07 02:46 | 31.98355 | -102.16513 | 37001 ft | 550 kts | 89° |
| 2026-05-07 02:46 | 31.99211 | -102.07612 | 37008 ft | 550 kts | 90° |
| 2026-05-07 02:47 | 32.00066 | -101.98652 | 37019 ft | 550 kts | 90° |
| 2026-05-07 02:47 | 32.00914 | -101.89699 | 37016 ft | 550 kts | 90° |
| 2026-05-07 02:48 | 32.01756 | -101.80739 | 37016 ft | 550 kts | 90° |
| 2026-05-07 02:48 | 32.02591 | -101.71789 | 37017 ft | 550 kts | 90° |
| 2026-05-07 02:49 | 32.03421 | -101.62829 | 37027 ft | 550 kts | 90° |
| 2026-05-07 02:49 | 32.04244 | -101.53864 | 37032 ft | 550 kts | 90° |
| 2026-05-07 02:50 | 32.05063 | -101.44880 | 37034 ft | 552 kts | 90° |
| 2026-05-07 02:50 | 32.05876 | -101.35878 | 37039 ft | 552 kts | 90° |
| 2026-05-07 02:51 | 32.06684 | -101.26870 | 37034 ft | 553 kts | 90° |
| 2026-05-07 02:51 | 32.07485 | -101.17863 | 37033 ft | 553 kts | 90° |
| 2026-05-07 02:52 | 32.08277 | -101.08890 | 37037 ft | 553 kts | 90° |
| 2026-05-07 02:52 | 32.09067 | -100.99860 | 37044 ft | 553 kts | 90° |
| 2026-05-07 02:53 | 32.09851 | -100.90827 | 37043 ft | 554 kts | 90° |
| 2026-05-07 02:53 | 32.10630 | -100.81776 | 37064 ft | 555 kts | 90° |
| 2026-05-07 02:54 | 32.11402 | -100.72733 | 37067 ft | 554 kts | 90° |
| 2026-05-07 02:54 | 32.12168 | -100.63676 | 37076 ft | 555 kts | 90° |
| 2026-05-07 02:55 | 32.12928 | -100.54611 | 37074 ft | 555 kts | 90° |
| 2026-05-07 02:55 | 32.13682 | -100.45543 | 37075 ft | 555 kts | 90° |
| 2026-05-07 02:56 | 32.14429 | -100.36484 | 37076 ft | 555 kts | 90° |
| 2026-05-07 02:56 | 32.15169 | -100.27420 | 37067 ft | 554 kts | 90° |
| 2026-05-07 02:57 | 32.15779 | -100.19892 | 37065 ft | 554 kts | 90° |
| 2026-05-07 02:57 | 32.16509 | -100.10840 | 37062 ft | 554 kts | 90° |
| 2026-05-07 02:58 | 32.17232 | -100.01786 | 37051 ft | 554 kts | 90° |
| 2026-05-07 02:58 | 32.17949 | -99.92729 | 37044 ft | 554 kts | 90° |
| 2026-05-07 02:59 | 32.18554 | -99.83682 | 37033 ft | 549 kts | 97° |
| 2026-05-07 02:59 | 32.18507 | -99.74681 | 37051 ft | 548 kts | 97° |
| 2026-05-07 03:00 | 32.18418 | -99.65691 | 37055 ft | 548 kts | 97° |
| 2026-05-07 03:00 | 32.18320 | -99.56700 | 37062 ft | 549 kts | 97° |
| 2026-05-07 03:01 | 32.18216 | -99.47678 | 37062 ft | 550 kts | 97° |
| 2026-05-07 03:01 | 32.18104 | -99.38656 | 37065 ft | 549 kts | 97° |
| 2026-05-07 03:02 | 32.17987 | -99.29642 | 37065 ft | 549 kts | 97° |
| 2026-05-07 03:02 | 32.17863 | -99.20621 | 37059 ft | 550 kts | 97° |
| 2026-05-07 03:03 | 32.17734 | -99.11651 | 37072 ft | 550 kts | 97° |
| 2026-05-07 03:03 | 32.17597 | -99.02625 | 37072 ft | 550 kts | 97° |
| 2026-05-07 03:04 | 32.17454 | -98.93592 | 37073 ft | 550 kts | 97° |
| 2026-05-07 03:04 | 32.17305 | -98.84583 | 36771 ft | 547 kts | 97° |
| 2026-05-07 03:05 | 32.17230 | -98.80114 | 36441 ft | 541 kts | 97° |
| 2026-05-07 03:05 | 32.17175 | -98.75657 | 35481 ft | 550 kts | 94° |
| 2026-05-07 03:05 | 32.17495 | -98.71088 | 34132 ft | 564 kts | 88° |
| 2026-05-07 03:05 | 32.17906 | -98.66446 | 33084 ft | 571 kts | 88° |
| 2026-05-07 03:06 | 32.18322 | -98.61799 | 32482 ft | 565 kts | 88° |
| 2026-05-07 03:06 | 32.18732 | -98.57220 | 31931 ft | 560 kts | 88° |
| 2026-05-07 03:06 | 32.19138 | -98.52650 | 31123 ft | 560 kts | 88° |
| 2026-05-07 03:06 | 32.19545 | -98.48063 | 30136 ft | 564 kts | 88° |
| 2026-05-07 03:07 | 32.19955 | -98.43437 | 29134 ft | 567 kts | 88° |
| 2026-05-07 03:07 | 32.20364 | -98.38840 | 28448 ft | 556 kts | 88° |
| 2026-05-07 03:07 | 32.20758 | -98.34357 | 27614 ft | 544 kts | 88° |
| 2026-05-07 03:07 | 32.21145 | -98.29955 | 26712 ft | 534 kts | 88° |
| 2026-05-07 03:08 | 32.21523 | -98.25627 | 25869 ft | 525 kts | 87° |
| 2026-05-07 03:08 | 32.21892 | -98.21388 | 25051 ft | 515 kts | 87° |
| 2026-05-07 03:08 | 32.22254 | -98.17214 | 24238 ft | 506 kts | 86° |
| 2026-05-07 03:08 | 32.22608 | -98.13116 | 23429 ft | 498 kts | 86° |
| 2026-05-07 03:09 | 32.22954 | -98.09085 | 22643 ft | 489 kts | 86° |
| 2026-05-07 03:09 | 32.23294 | -98.05122 | 21871 ft | 481 kts | 86° |
| 2026-05-07 03:09 | 32.23627 | -98.01228 | 21116 ft | 473 kts | 86° |
| 2026-05-07 03:09 | 32.23953 | -97.97394 | 20361 ft | 465 kts | 87° |
| 2026-05-07 03:10 | 32.24273 | -97.93625 | 19631 ft | 457 kts | 87° |
| 2026-05-07 03:10 | 32.24585 | -97.89919 | 18909 ft | 450 kts | 87° |
| 2026-05-07 03:10 | 32.24893 | -97.86274 | 18208 ft | 442 kts | 87° |
| 2026-05-07 03:10 | 32.25190 | -97.82683 | 17394 ft | 437 kts | 88° |
| 2026-05-07 03:11 | 32.25480 | -97.79129 | 16669 ft | 431 kts | 87° |
| 2026-05-07 03:11 | 32.25765 | -97.75632 | 15981 ft | 424 kts | 87° |
| 2026-05-07 03:11 | 32.26043 | -97.72204 | 15314 ft | 417 kts | 86° |
| 2026-05-07 03:11 | 32.26318 | -97.68819 | 14653 ft | 410 kts | 86° |
| 2026-05-07 03:12 | 32.26582 | -97.65542 | 14022 ft | 403 kts | 86° |
| 2026-05-07 03:12 | 32.26845 | -97.62273 | 13369 ft | 396 kts | 85° |
| 2026-05-07 03:12 | 32.27103 | -97.59059 | 12740 ft | 390 kts | 85° |
| 2026-05-07 03:12 | 32.27354 | -97.55907 | 12135 ft | 382 kts | 85° |
| 2026-05-07 03:13 | 32.27601 | -97.52806 | 11539 ft | 375 kts | 85° |
| 2026-05-07 03:13 | 32.27852 | -97.49760 | 10962 ft | 368 kts | 82° |
| 2026-05-07 03:13 | 32.28593 | -97.46959 | 10691 ft | 349 kts | 61° |
| 2026-05-07 03:13 | 32.29651 | -97.44474 | 10555 ft | 330 kts | 62° |
| 2026-05-07 03:14 | 32.30651 | -97.42058 | 10386 ft | 325 kts | 62° |
| 2026-05-07 03:14 | 32.31643 | -97.39665 | 10200 ft | 322 kts | 62° |
| 2026-05-07 03:14 | 32.33578 | -97.34990 | 9841 ft | 311 kts | 62° |
| 2026-05-07 03:15 | 32.34522 | -97.32710 | 9668 ft | 306 kts | 62° |
| 2026-05-07 03:15 | 32.35446 | -97.30475 | 9496 ft | 300 kts | 62° |
| 2026-05-07 03:15 | 32.36364 | -97.28256 | 9333 ft | 300 kts | 62° |
| 2026-05-07 03:15 | 32.37277 | -97.26043 | 9173 ft | 298 kts | 62° |
| 2026-05-07 03:16 | 32.38183 | -97.23844 | 9025 ft | 297 kts | 63° |
| 2026-05-07 03:16 | 32.39076 | -97.21652 | 8976 ft | 295 kts | 63° |
| 2026-05-07 03:16 | 32.39967 | -97.19467 | 8975 ft | 295 kts | 62° |
| 2026-05-07 03:16 | 32.40860 | -97.17276 | 8973 ft | 295 kts | 63° |
| 2026-05-07 03:17 | 32.41752 | -97.15085 | 8977 ft | 296 kts | 63° |
| 2026-05-07 03:17 | 32.42645 | -97.12893 | 8980 ft | 296 kts | 63° |
| 2026-05-07 03:17 | 32.43491 | -97.10813 | 8979 ft | 296 kts | 63° |
| 2026-05-07 03:17 | 32.44383 | -97.08617 | 8976 ft | 294 kts | 63° |
| 2026-05-07 03:18 | 32.45269 | -97.06428 | 8938 ft | 294 kts | 63° |
| 2026-05-07 03:18 | 32.46137 | -97.04232 | 8646 ft | 295 kts | 63° |
| 2026-05-07 03:18 | 32.47008 | -97.02030 | 8359 ft | 295 kts | 63° |
| 2026-05-07 03:18 | 32.47872 | -96.99845 | 8069 ft | 292 kts | 63° |
| 2026-05-07 03:19 | 32.48733 | -96.97668 | 7768 ft | 290 kts | 63° |
| 2026-05-07 03:19 | 32.49586 | -96.95510 | 7487 ft | 288 kts | 63° |
| 2026-05-07 03:19 | 32.50430 | -96.93373 | 7201 ft | 285 kts | 63° |
| 2026-05-07 03:19 | 32.51266 | -96.91254 | 6914 ft | 283 kts | 63° |
| 2026-05-07 03:20 | 32.52101 | -96.89154 | 6625 ft | 281 kts | 62° |
| 2026-05-07 03:20 | 32.52950 | -96.87108 | 6309 ft | 280 kts | 62° |
| 2026-05-07 03:20 | 32.53805 | -96.85048 | 6021 ft | 277 kts | 62° |
| 2026-05-07 03:20 | 32.54648 | -96.83009 | 5749 ft | 274 kts | 62° |
| 2026-05-07 03:21 | 32.55481 | -96.80995 | 5468 ft | 271 kts | 62° |
| 2026-05-07 03:21 | 32.56305 | -96.78999 | 5182 ft | 268 kts | 62° |
| 2026-05-07 03:21 | 32.57198 | -96.77085 | 5024 ft | 260 kts | 52° |
| 2026-05-07 03:21 | 32.58186 | -96.75354 | 4952 ft | 250 kts | 65° |
| 2026-05-07 03:22 | 32.58460 | -96.73372 | 4860 ft | 244 kts | 95° |
| 2026-05-07 03:22 | 32.57873 | -96.71537 | 4779 ft | 236 kts | 124° |
| 2026-05-07 03:22 | 32.56840 | -96.70049 | 4515 ft | 234 kts | 130° |
| 2026-05-07 03:22 | 32.55743 | -96.68616 | 4249 ft | 235 kts | 134° |
| 2026-05-07 03:23 | 32.54430 | -96.67482 | 3990 ft | 235 kts | 150° |
| 2026-05-07 03:23 | 32.52980 | -96.66600 | 3727 ft | 234 kts | 152° |
| 2026-05-07 03:23 | 32.51645 | -96.65564 | 3486 ft | 225 kts | 125° |
| 2026-05-07 03:23 | 32.51156 | -96.63955 | 3460 ft | 198 kts | 81° |
| 2026-05-07 03:24 | 32.51591 | -96.62518 | 3464 ft | 182 kts | 55° |
| 2026-05-07 03:24 | 32.52377 | -96.61356 | 3436 ft | 180 kts | 39° |
| 2026-05-07 03:24 | 32.53433 | -96.60592 | 3376 ft | 178 kts | 18° |
| 2026-05-07 03:24 | 32.54647 | -96.60416 | 3328 ft | 178 kts | 354° |
| 2026-05-07 03:25 | 32.55853 | -96.60753 | 3293 ft | 179 kts | 346° |
| 2026-05-07 03:25 | 32.57052 | -96.61135 | 3264 ft | 178 kts | 347° |
| 2026-05-07 03:25 | 32.58252 | -96.61502 | 3275 ft | 178 kts | 347° |
| 2026-05-07 03:25 | 32.59458 | -96.61863 | 3279 ft | 179 kts | 348° |
| 2026-05-07 03:26 | 32.60659 | -96.62217 | 3276 ft | 178 kts | 348° |
| 2026-05-07 03:26 | 32.61863 | -96.62566 | 3273 ft | 178 kts | 348° |
| 2026-05-07 03:26 | 32.63067 | -96.62914 | 3275 ft | 178 kts | 348° |
| 2026-05-07 03:26 | 32.64274 | -96.63260 | 3271 ft | 178 kts | 348° |
| 2026-05-07 03:27 | 32.65427 | -96.63785 | 3201 ft | 180 kts | 325° |
| 2026-05-07 03:27 | 32.66375 | -96.64766 | 3155 ft | 182 kts | 322° |
| 2026-05-07 03:27 | 32.67313 | -96.65775 | 3072 ft | 182 kts | 321° |
| 2026-05-07 03:27 | 32.68234 | -96.66802 | 2980 ft | 181 kts | 320° |
| 2026-05-07 03:28 | 32.69133 | -96.67826 | 2881 ft | 177 kts | 320° |
| 2026-05-07 03:28 | 32.70005 | -96.68826 | 2788 ft | 173 kts | 320° |
| 2026-05-07 03:28 | 32.70864 | -96.69816 | 2698 ft | 171 kts | 319° |
| 2026-05-07 03:28 | 32.71717 | -96.70800 | 2677 ft | 171 kts | 319° |
| 2026-05-07 03:29 | 32.72571 | -96.71787 | 2602 ft | 172 kts | 320° |
| 2026-05-07 03:29 | 32.73412 | -96.72760 | 2521 ft | 168 kts | 320° |
| 2026-05-07 03:29 | 32.74226 | -96.73703 | 2506 ft | 162 kts | 320° |
| 2026-05-07 03:29 | 32.75031 | -96.74634 | 2472 ft | 161 kts | 320° |
| 2026-05-07 03:30 | 32.75821 | -96.75550 | 2401 ft | 154 kts | 320° |
| 2026-05-07 03:30 | 32.76557 | -96.76404 | 2331 ft | 144 kts | 320° |
| 2026-05-07 03:30 | 32.77267 | -96.77227 | 2259 ft | 143 kts | 320° |
| 2026-05-07 03:30 | 32.77975 | -96.78048 | 2210 ft | 142 kts | 320° |
| 2026-05-07 03:31 | 32.78685 | -96.78870 | 2201 ft | 143 kts | 320° |
| 2026-05-07 03:31 | 32.79394 | -96.79694 | 2197 ft | 143 kts | 320° |
| 2026-05-07 03:31 | 32.80097 | -96.80530 | 1865 ft | 142 kts | 317° |
| 2026-05-07 03:31 | 32.80787 | -96.81350 | 1478 ft | 138 kts | 319° |
| 2026-05-07 03:32 | 32.81458 | -96.82134 | 1186 ft | 137 kts | 319° |
| 2026-05-07 03:32 | 32.82162 | -96.82936 | 949 ft | 141 kts | 319° |
| 2026-05-07 03:32 | 32.82846 | -96.83716 | 725 ft | 132 kts | 317° |
| 2026-05-07 03:32 | 32.83509 | -96.84479 | 508 ft | 133 kts | 318° |
| 2026-05-07 03:33 | 32.84056 | -96.85103 | 486 ft | 74 kts | 316° |
| 2026-05-07 03:33 | 32.84317 | -96.85403 | 484 ft | 46 kts | 315° |
| 2026-05-07 03:33 | 32.84481 | -96.85534 | 486 ft | 17 kts | 23° |
| 2026-05-07 03:33 | 32.84519 | -96.85479 | 486 ft | 8 kts | 78° |
| 2026-05-07 03:34 | 32.84503 | -96.85431 | 486 ft | 7 kts | 128° |
| 2026-05-07 03:34 | 32.84466 | -96.85381 | 485 ft | 8 kts | 95° |
| 2026-05-07 03:34 | 32.84511 | -96.85345 | 486 ft | 9 kts | 4° |
| 2026-05-07 03:34 | 32.84588 | -96.85339 | 483 ft | 13 kts | 4° |
| 2026-05-07 03:35 | 32.84690 | -96.85327 | 485 ft | 16 kts | 6° |
| 2026-05-07 03:35 | 32.84747 | -96.85240 | 486 ft | 16 kts | 90° |
| 2026-05-07 03:35 | 32.84746 | -96.85100 | 486 ft | 18 kts | 90° |
| 2026-05-07 03:35 | 32.84744 | -96.84941 | 483 ft | 20 kts | 91° |
| 2026-05-07 03:36 | 32.84724 | -96.84772 | 486 ft | 22 kts | 125° |
| 2026-05-07 03:36 | 32.84628 | -96.84649 | 486 ft | 19 kts | 141° |
| 2026-05-07 03:36 | 32.84546 | -96.84663 | 486 ft | 13 kts | 226° |
| 2026-05-07 03:36 | 32.84507 | -96.84758 | 486 ft | 11 kts | 280° |
| 2026-05-07 03:37 | 32.84536 | -96.84785 | 486 ft | 3 kts | 354° |
| 2026-05-07 03:37 | 32.84554 | -96.84785 | 486 ft | 3 kts | 0° |
| 2026-05-07 03:37 | 32.84563 | -96.84785 | 486 ft | 1 kts | 0° |
| 2026-05-07 03:37 | 32.84565 | -96.84785 | 486 ft | 0 kts | 0° |